sensor_id;sensor_type;location;lat;lon;timestamp;pressure;altitude;pressure_sealevel;temperature;humidity
71970;BME280;59838;52.152;5.436;2023-09-19T00:02:03;100770.88;;;13.83;100.00
71970;BME280;59838;52.152;5.436;2023-09-19T00:04:32;100778.13;;;13.81;100.00
71970;BME280;59838;52.152;5.436;2023-09-19T00:06:59;100762.88;;;13.78;100.00
71970;BME280;59838;52.152;5.436;2023-09-19T00:09:25;100775.13;;;13.77;100.00
71970;BME280;59838;52.152;5.436;2023-09-19T00:11:55;100775.75;;;13.73;100.00
71970;BME280;59838;52.152;5.436;2023-09-19T00:14:25;100782.78;;;13.72;100.00
71970;BME280;59838;52.152;5.436;2023-09-19T00:16:51;100784.56;;;13.71;100.00
71970;BME280;59838;52.152;5.436;2023-09-19T00:19:17;100794.41;;;13.69;100.00
71970;BME280;59838;52.152;5.436;2023-09-19T00:21:44;100789.19;;;13.69;100.00
71970;BME280;59838;52.152;5.436;2023-09-19T00:24:12;100790.81;;;13.70;100.00
71970;BME280;59838;52.152;5.436;2023-09-19T00:26:40;100782.16;;;13.70;100.00
71970;BME280;59838;52.152;5.436;2023-09-19T00:29:06;100783.19;;;13.69;100.00
71970;BME280;59838;52.152;5.436;2023-09-19T00:31:33;100791.81;;;13.69;100.00
71970;BME280;59838;52.152;5.436;2023-09-19T00:33:59;100792.22;;;13.66;100.00
71970;BME280;59838;52.152;5.436;2023-09-19T00:36:33;100794.22;;;13.64;100.00
71970;BME280;59838;52.152;5.436;2023-09-19T00:39:00;100797.84;;;13.63;100.00
71970;BME280;59838;52.152;5.436;2023-09-19T00:41:26;100791.22;;;13.61;100.00
71970;BME280;59838;52.152;5.436;2023-09-19T00:43:56;100798.84;;;13.62;100.00
71970;BME280;59838;52.152;5.436;2023-09-19T00:46:23;100791.63;;;13.64;100.00
71970;BME280;59838;52.152;5.436;2023-09-19T00:48:50;100794.81;;;13.66;100.00
71970;BME280;59838;52.152;5.436;2023-09-19T00:51:16;100806.88;;;13.67;100.00
71970;BME280;59838;52.152;5.436;2023-09-19T00:53:47;100798.84;;;13.69;100.00
71970;BME280;59838;52.152;5.436;2023-09-19T00:56:14;100802.25;;;13.69;100.00
71970;BME280;59838;52.152;5.436;2023-09-19T00:58:45;100800.44;;;13.70;100.00
71970;BME280;59838;52.152;5.436;2023-09-19T01:01:16;100808.06;;;13.71;100.00
71970;BME280;59838;52.152;5.436;2023-09-19T01:03:44;100813.09;;;13.73;100.00
71970;BME280;59838;52.152;5.436;2023-09-19T01:06:11;100809.09;;;13.70;100.00
71970;BME280;59838;52.152;5.436;2023-09-19T01:08:38;100811.50;;;13.72;100.00
71970;BME280;59838;52.152;5.436;2023-09-19T01:17:14;100813.91;;;13.74;100.00
71970;BME280;59838;52.152;5.436;2023-09-19T01:20:03;100813.09;;;13.73;100.00
71970;BME280;59838;52.152;5.436;2023-09-19T01:22:48;100810.66;;;13.71;100.00
71970;BME280;59838;52.152;5.436;2023-09-19T01:30:59;100818.13;;;13.61;100.00
71970;BME280;59838;52.152;5.436;2023-09-19T01:33:28;100825.97;;;13.61;100.00
71970;BME280;59838;52.152;5.436;2023-09-19T01:36:00;100819.13;;;13.60;100.00
71970;BME280;59838;52.152;5.436;2023-09-19T01:38:27;100814.94;;;13.59;100.00
71970;BME280;59838;52.152;5.436;2023-09-19T01:41:02;100817.53;;;13.59;100.00
71970;BME280;59838;52.152;5.436;2023-09-19T01:43:37;100824.16;;;13.62;100.00
71970;BME280;59838;52.152;5.436;2023-09-19T01:46:13;100822.94;;;13.64;100.00
71970;BME280;59838;52.152;5.436;2023-09-19T01:48:52;100824.34;;;13.67;100.00
71970;BME280;59838;52.152;5.436;2023-09-19T01:51:50;100829.34;;;13.68;100.00
71970;BME280;59838;52.152;5.436;2023-09-19T01:54:26;100830.19;;;13.69;100.00
71970;BME280;59838;52.152;5.436;2023-09-19T01:57:20;100840.63;;;13.69;100.00
71970;BME280;59838;52.152;5.436;2023-09-19T01:59:52;100829.16;;;13.70;100.00
71970;BME280;59838;52.152;5.436;2023-09-19T02:02:21;100829.97;;;13.70;100.00
71970;BME280;59838;52.152;5.436;2023-09-19T02:04:49;100825.75;;;13.69;100.00
71970;BME280;59838;52.152;5.436;2023-09-19T02:07:16;100835.59;;;13.67;100.00
71970;BME280;59838;52.152;5.436;2023-09-19T02:09:43;100829.75;;;13.65;100.00
71970;BME280;59838;52.152;5.436;2023-09-19T02:12:09;100827.38;;;13.64;100.00
71970;BME280;59838;52.152;5.436;2023-09-19T02:14:36;100826.75;;;13.62;100.00
71970;BME280;59838;52.152;5.436;2023-09-19T02:17:03;100821.72;;;13.60;100.00
71970;BME280;59838;52.152;5.436;2023-09-19T02:19:33;100819.13;;;13.60;100.00
71970;BME280;59838;52.152;5.436;2023-09-19T02:22:00;100820.16;;;13.59;100.00
71970;BME280;59838;52.152;5.436;2023-09-19T02:24:29;100823.75;;;13.58;100.00
71970;BME280;59838;52.152;5.436;2023-09-19T02:26:56;100831.00;;;13.56;100.00
71970;BME280;59838;52.152;5.436;2023-09-19T02:29:23;100832.78;;;13.56;100.00
71970;BME280;59838;52.152;5.436;2023-09-19T02:31:51;100829.16;;;13.57;100.00
71970;BME280;59838;52.152;5.436;2023-09-19T02:34:17;100834.38;;;13.57;100.00
71970;BME280;59838;52.152;5.436;2023-09-19T02:36:44;100837.78;;;13.57;100.00
71970;BME280;59838;52.152;5.436;2023-09-19T02:39:11;100839.81;;;13.55;100.00
71970;BME280;59838;52.152;5.436;2023-09-19T02:41:37;100836.41;;;13.55;100.00
71970;BME280;59838;52.152;5.436;2023-09-19T02:44:04;100833.41;;;13.51;100.00
71970;BME280;59838;52.152;5.436;2023-09-19T02:46:34;100840.63;;;13.49;100.00
71970;BME280;59838;52.152;5.436;2023-09-19T02:49:03;100841.00;;;13.46;100.00
71970;BME280;59838;52.152;5.436;2023-09-19T02:51:32;100838.84;;;13.43;100.00
71970;BME280;59838;52.152;5.436;2023-09-19T02:53:59;100839.22;;;13.40;100.00
71970;BME280;59838;52.152;5.436;2023-09-19T02:56:26;100844.66;;;13.38;100.00
71970;BME280;59838;52.152;5.436;2023-09-19T02:58:53;100839.63;;;13.37;100.00
71970;BME280;59838;52.152;5.436;2023-09-19T03:01:19;100845.41;;;13.32;100.00
71970;BME280;59838;52.152;5.436;2023-09-19T03:03:46;100840.78;;;13.27;100.00
71970;BME280;59838;52.152;5.436;2023-09-19T03:06:13;100845.41;;;13.25;100.00
71970;BME280;59838;52.152;5.436;2023-09-19T03:08:39;100840.59;;;13.22;100.00
71970;BME280;59838;52.152;5.436;2023-09-19T03:11:06;100831.53;;;13.18;100.00
71970;BME280;59838;52.152;5.436;2023-09-19T03:13:34;100827.94;;;13.12;100.00
71970;BME280;59838;52.152;5.436;2023-09-19T03:16:03;100832.75;;;13.09;100.00
71970;BME280;59838;52.152;5.436;2023-09-19T03:18:33;100834.16;;;13.05;100.00
71970;BME280;59838;52.152;5.436;2023-09-19T03:21:00;100828.72;;;12.99;100.00
71970;BME280;59838;52.152;5.436;2023-09-19T03:23:27;100832.72;;;12.95;100.00
71970;BME280;59838;52.152;5.436;2023-09-19T03:25:55;100839.34;;;12.91;100.00
71970;BME280;59838;52.152;5.436;2023-09-19T03:28:22;100834.72;;;12.87;100.00
71970;BME280;59838;52.152;5.436;2023-09-19T03:31:00;100840.31;;;12.84;100.00
71970;BME280;59838;52.152;5.436;2023-09-19T03:33:27;100833.88;;;12.79;100.00
71970;BME280;59838;52.152;5.436;2023-09-19T03:35:53;100834.09;;;12.78;100.00
71970;BME280;59838;52.152;5.436;2023-09-19T03:38:20;100837.09;;;12.75;100.00
71970;BME280;59838;52.152;5.436;2023-09-19T03:40:47;100832.28;;;12.72;100.00
71970;BME280;59838;52.152;5.436;2023-09-19T03:43:15;100830.06;;;12.69;100.00
71970;BME280;59838;52.152;5.436;2023-09-19T03:45:41;100827.66;;;12.67;100.00
71970;BME280;59838;52.152;5.436;2023-09-19T03:48:09;100825.44;;;12.64;100.00
71970;BME280;59838;52.152;5.436;2023-09-19T03:50:36;100819.19;;;12.58;100.00
71970;BME280;59838;52.152;5.436;2023-09-19T03:53:03;100820.59;;;12.54;100.00
71970;BME280;59838;52.152;5.436;2023-09-19T03:55:29;100834.19;;;12.50;100.00
71970;BME280;59838;52.152;5.436;2023-09-19T03:57:59;100834.00;;;12.44;100.00
71970;BME280;59838;52.152;5.436;2023-09-19T04:00:25;100842.19;;;12.41;100.00
71970;BME280;59838;52.152;5.436;2023-09-19T04:02:52;100840.97;;;12.37;100.00
71970;BME280;59838;52.152;5.436;2023-09-19T04:05:19;100857.00;;;12.34;100.00
71970;BME280;59838;52.152;5.436;2023-09-19T04:07:46;100857.19;;;12.33;100.00
71970;BME280;59838;52.152;5.436;2023-09-19T04:10:12;100850.94;;;12.27;100.00
71970;BME280;59838;52.152;5.436;2023-09-19T04:12:50;100862.34;;;12.26;100.00
71970;BME280;59838;52.152;5.436;2023-09-19T04:15:17;100868.16;;;12.21;100.00
71970;BME280;59838;52.152;5.436;2023-09-19T04:17:43;100866.72;;;12.19;100.00
71970;BME280;59838;52.152;5.436;2023-09-19T04:20:10;100872.91;;;12.18;100.00
71970;BME280;59838;52.152;5.436;2023-09-19T04:22:38;100869.09;;;12.14;100.00
71970;BME280;59838;52.152;5.436;2023-09-19T04:25:06;100870.28;;;12.11;100.00
71970;BME280;59838;52.152;5.436;2023-09-19T04:27:35;100883.13;;;12.13;100.00
71970;BME280;59838;52.152;5.436;2023-09-19T04:30:01;100883.94;;;12.13;100.00
71970;BME280;59838;52.152;5.436;2023-09-19T04:32:30;100889.16;;;12.13;100.00
71970;BME280;59838;52.152;5.436;2023-09-19T04:34:58;100882.13;;;12.14;100.00
71970;BME280;59838;52.152;5.436;2023-09-19T04:37:28;100892.53;;;12.14;100.00
71970;BME280;59838;52.152;5.436;2023-09-19T04:40:00;100898.56;;;12.14;100.00
71970;BME280;59838;52.152;5.436;2023-09-19T04:42:26;100913.56;;;12.12;100.00
71970;BME280;59838;52.152;5.436;2023-09-19T04:44:53;100917.16;;;12.11;100.00
71970;BME280;59838;52.152;5.436;2023-09-19T04:47:20;100915.75;;;12.09;100.00
71970;BME280;59838;52.152;5.436;2023-09-19T04:49:48;100908.13;;;12.07;100.00
71970;BME280;59838;52.152;5.436;2023-09-19T04:52:15;100904.91;;;12.05;100.00
71970;BME280;59838;52.152;5.436;2023-09-19T04:54:42;100905.72;;;12.05;100.00
71970;BME280;59838;52.152;5.436;2023-09-19T04:57:08;100898.69;;;12.06;100.00
71970;BME280;59838;52.152;5.436;2023-09-19T04:59:35;100897.72;;;12.07;100.00
71970;BME280;59838;52.152;5.436;2023-09-19T05:02:02;100896.09;;;12.06;100.00
71970;BME280;59838;52.152;5.436;2023-09-19T05:04:29;100906.50;;;12.06;100.00
71970;BME280;59838;52.152;5.436;2023-09-19T05:06:55;100897.09;;;12.05;100.00
71970;BME280;59838;52.152;5.436;2023-09-19T05:09:21;100903.72;;;12.07;100.00
71970;BME280;59838;52.152;5.436;2023-09-19T05:11:48;100906.13;;;12.09;100.00
71970;BME280;59838;52.152;5.436;2023-09-19T05:14:15;100906.75;;;12.11;100.00
71970;BME280;59838;52.152;5.436;2023-09-19T05:16:41;100906.97;;;12.16;100.00
71970;BME280;59838;52.152;5.436;2023-09-19T05:19:09;100906.97;;;12.16;100.00
71970;BME280;59838;52.152;5.436;2023-09-19T05:21:38;100907.38;;;12.13;100.00
71970;BME280;59838;52.152;5.436;2023-09-19T05:24:07;100908.16;;;12.14;100.00
71970;BME280;59838;52.152;5.436;2023-09-19T05:26:36;100914.00;;;12.16;100.00
71970;BME280;59838;52.152;5.436;2023-09-19T05:29:03;100921.81;;;12.16;100.00
71970;BME280;59838;52.152;5.436;2023-09-19T05:31:31;100921.63;;;12.17;100.00
71970;BME280;59838;52.152;5.436;2023-09-19T05:33:57;100897.78;;;12.20;100.00
71970;BME280;59838;52.152;5.436;2023-09-19T05:36:24;100913.06;;;12.30;100.00
71970;BME280;59838;52.152;5.436;2023-09-19T05:38:51;100893.88;;;12.38;100.00
71970;BME280;59838;52.152;5.436;2023-09-19T05:41:19;100900.53;;;12.47;100.00
71970;BME280;59838;52.152;5.436;2023-09-19T05:43:49;100895.97;;;12.56;100.00
71970;BME280;59838;52.152;5.436;2023-09-19T05:46:16;100904.63;;;12.63;100.00
71970;BME280;59838;52.152;5.436;2023-09-19T05:48:43;100903.25;;;12.67;100.00
71970;BME280;59838;52.152;5.436;2023-09-19T05:51:10;100903.25;;;12.67;100.00
71970;BME280;59838;52.152;5.436;2023-09-19T05:53:36;100909.81;;;12.63;100.00
71970;BME280;59838;52.152;5.436;2023-09-19T05:56:04;100913.06;;;12.65;100.00
71970;BME280;59838;52.152;5.436;2023-09-19T05:58:30;100918.69;;;12.69;100.00
71970;BME280;59838;52.152;5.436;2023-09-19T06:00:57;100923.91;;;12.75;100.00
71970;BME280;59838;52.152;5.436;2023-09-19T06:03:24;100912.91;;;12.80;100.00
71970;BME280;59838;52.152;5.436;2023-09-19T06:05:50;100912.34;;;12.85;100.00
71970;BME280;59838;52.152;5.436;2023-09-19T06:08:19;100924.16;;;12.87;100.00
71970;BME280;59838;52.152;5.436;2023-09-19T06:10:46;100929.00;;;12.90;100.00
71970;BME280;59838;52.152;5.436;2023-09-19T06:13:13;100938.63;;;12.96;100.00
71970;BME280;59838;52.152;5.436;2023-09-19T06:15:39;100936.66;;;13.05;100.00
71970;BME280;59838;52.152;5.436;2023-09-19T06:18:10;100929.66;;;13.12;100.00
71970;BME280;59838;52.152;5.436;2023-09-19T06:20:40;100938.91;;;13.22;100.00
71970;BME280;59838;52.152;5.436;2023-09-19T06:23:10;100936.94;;;13.30;100.00
71970;BME280;59838;52.152;5.436;2023-09-19T06:25:37;100942.19;;;13.44;100.00
71970;BME280;59838;52.152;5.436;2023-09-19T06:28:03;100944.84;;;13.64;100.00
71970;BME280;59838;52.152;5.436;2023-09-19T06:30:31;100949.25;;;13.97;100.00
71970;BME280;59838;52.152;5.436;2023-09-19T06:32:59;100949.44;;;14.29;100.00
71970;BME280;59838;52.152;5.436;2023-09-19T06:35:27;100939.97;;;14.27;100.00
71970;BME280;59838;52.152;5.436;2023-09-19T06:37:55;100928.28;;;14.30;100.00
71970;BME280;59838;52.152;5.436;2023-09-19T06:40:25;100922.47;;;14.35;100.00
71970;BME280;59838;52.152;5.436;2023-09-19T06:42:52;100925.50;;;14.38;100.00
71970;BME280;59838;52.152;5.436;2023-09-19T06:45:23;100929.69;;;14.39;100.00
71970;BME280;59838;52.152;5.436;2023-09-19T06:47:51;100926.06;;;14.47;100.00
71970;BME280;59838;52.152;5.436;2023-09-19T06:50:19;100933.09;;;14.60;100.00
71970;BME280;59838;52.152;5.436;2023-09-19T06:52:49;100931.63;;;14.77;100.00
71970;BME280;59838;52.152;5.436;2023-09-19T06:55:20;100926.97;;;14.79;100.00
71970;BME280;59838;52.152;5.436;2023-09-19T06:57:47;100933.81;;;14.80;100.00
71970;BME280;59838;52.152;5.436;2023-09-19T07:00:15;100944.03;;;14.89;100.00
71970;BME280;59838;52.152;5.436;2023-09-19T07:02:54;100937.53;;;14.98;100.00
71970;BME280;59838;52.152;5.436;2023-09-19T07:05:20;100932.84;;;15.13;100.00
71970;BME280;59838;52.152;5.436;2023-09-19T07:07:48;100927.53;;;15.27;100.00
71970;BME280;59838;52.152;5.436;2023-09-19T07:10:15;100936.63;;;15.49;100.00
71970;BME280;59838;52.152;5.436;2023-09-19T07:12:42;100935.94;;;15.61;100.00
71970;BME280;59838;52.152;5.436;2023-09-19T07:15:09;100929.00;;;15.73;100.00
71970;BME280;59838;52.152;5.436;2023-09-19T07:17:36;100936.47;;;15.76;100.00
71970;BME280;59838;52.152;5.436;2023-09-19T07:20:03;100934.38;;;15.85;100.00
71970;BME280;59838;52.152;5.436;2023-09-19T07:22:34;100949.97;;;15.98;100.00
71970;BME280;59838;52.152;5.436;2023-09-19T07:25:01;100945.44;;;16.12;100.00
71970;BME280;59838;52.152;5.436;2023-09-19T07:27:27;100944.41;;;16.32;100.00
71970;BME280;59838;52.152;5.436;2023-09-19T07:29:54;100957.75;;;16.49;99.52
71970;BME280;59838;52.152;5.436;2023-09-19T07:32:20;100948.56;;;16.58;99.33
71970;BME280;59838;52.152;5.436;2023-09-19T07:34:47;100954.31;;;16.67;98.63
71970;BME280;59838;52.152;5.436;2023-09-19T07:37:14;100964.06;;;16.78;98.72
71970;BME280;59838;52.152;5.436;2023-09-19T07:39:42;100960.94;;;16.88;98.26
71970;BME280;59838;52.152;5.436;2023-09-19T07:42:09;100959.59;;;17.15;97.00
71970;BME280;59838;52.152;5.436;2023-09-19T07:44:38;100960.00;;;17.43;95.06
71970;BME280;59838;52.152;5.436;2023-09-19T07:47:04;100965.91;;;17.26;95.58
71970;BME280;59838;52.152;5.436;2023-09-19T07:49:31;100961.03;;;16.99;95.46
71970;BME280;59838;52.152;5.436;2023-09-19T07:51:57;100963.00;;;16.86;97.89
71970;BME280;59838;52.152;5.436;2023-09-19T07:54:25;100951.41;;;16.93;97.38
71970;BME280;59838;52.152;5.436;2023-09-19T07:56:52;100961.19;;;16.86;99.00
71970;BME280;59838;52.152;5.436;2023-09-19T07:59:20;100964.84;;;16.85;98.61
71970;BME280;59838;52.152;5.436;2023-09-19T08:01:47;100956.50;;;16.70;97.96
71970;BME280;59838;52.152;5.436;2023-09-19T08:04:14;100959.41;;;16.61;98.64
71970;BME280;59838;52.152;5.436;2023-09-19T08:06:41;100958.50;;;16.56;99.00
71970;BME280;59838;52.152;5.436;2023-09-19T08:09:08;100961.16;;;16.68;99.60
71970;BME280;59838;52.152;5.436;2023-09-19T08:11:37;100964.22;;;16.83;97.76
71970;BME280;59838;52.152;5.436;2023-09-19T08:14:03;100957.75;;;16.86;97.43
71970;BME280;59838;52.152;5.436;2023-09-19T08:16:32;100956.66;;;16.93;97.91
71970;BME280;59838;52.152;5.436;2023-09-19T08:18:59;100959.19;;;17.00;98.19
71970;BME280;59838;52.152;5.436;2023-09-19T08:21:25;100953.03;;;16.94;97.94
71970;BME280;59838;52.152;5.436;2023-09-19T08:23:55;100963.00;;;16.86;99.14
71970;BME280;59838;52.152;5.436;2023-09-19T08:26:23;100946.16;;;16.93;99.17
71970;BME280;59838;52.152;5.436;2023-09-19T08:28:50;100953.38;;;16.98;99.49
71970;BME280;59838;52.152;5.436;2023-09-19T08:31:18;100961.25;;;16.98;99.14
71970;BME280;59838;52.152;5.436;2023-09-19T08:33:44;100951.09;;;17.02;98.04
71970;BME280;59838;52.152;5.436;2023-09-19T08:36:17;100950.22;;;16.89;98.15
71970;BME280;59838;52.152;5.436;2023-09-19T08:38:44;100952.19;;;16.94;98.46
71970;BME280;59838;52.152;5.436;2023-09-19T08:41:10;100956.91;;;17.04;98.32
71970;BME280;59838;52.152;5.436;2023-09-19T08:43:37;100949.44;;;17.19;99.00
71970;BME280;59838;52.152;5.436;2023-09-19T08:46:12;100958.97;;;17.32;97.30
71970;BME280;59838;52.152;5.436;2023-09-19T08:48:58;100945.63;;;17.33;98.24
71970;BME280;59838;52.152;5.436;2023-09-19T08:51:42;100947.41;;;17.33;97.23
71970;BME280;59838;52.152;5.436;2023-09-19T08:54:28;100939.91;;;17.36;98.31
71970;BME280;59838;52.152;5.436;2023-09-19T08:56:58;100942.34;;;17.50;97.02
71970;BME280;59838;52.152;5.436;2023-09-19T08:59:28;100951.72;;;17.69;95.85
71970;BME280;59838;52.152;5.436;2023-09-19T09:01:56;100941.34;;;17.75;95.71
71970;BME280;59838;52.152;5.436;2023-09-19T09:04:23;100939.28;;;17.65;94.10
71970;BME280;59838;52.152;5.436;2023-09-19T09:06:53;100938.69;;;17.63;93.97
71970;BME280;59838;52.152;5.436;2023-09-19T09:09:21;100950.72;;;17.70;94.65
71970;BME280;59838;52.152;5.436;2023-09-19T09:11:48;100951.28;;;17.84;94.36
71970;BME280;59838;52.152;5.436;2023-09-19T09:14:17;100947.53;;;18.04;93.96
71970;BME280;59838;52.152;5.436;2023-09-19T09:16:43;100951.66;;;18.00;93.33
71970;BME280;59838;52.152;5.436;2023-09-19T09:19:11;100956.44;;;17.91;94.49
71970;BME280;59838;52.152;5.436;2023-09-19T09:21:39;100935.09;;;17.87;92.67
71970;BME280;59838;52.152;5.436;2023-09-19T09:24:29;100941.84;;;17.95;93.80
71970;BME280;59838;52.152;5.436;2023-09-19T09:26:57;100941.94;;;18.12;92.50
71970;BME280;59838;52.152;5.436;2023-09-19T09:29:44;100933.38;;;18.05;93.21
71970;BME280;59838;52.152;5.436;2023-09-19T09:32:27;100936.78;;;18.05;93.33
71970;BME280;59838;52.152;5.436;2023-09-19T09:35:09;100938.28;;;18.13;90.96
71970;BME280;59838;52.152;5.436;2023-09-19T09:37:36;100927.06;;;18.18;92.60
71970;BME280;59838;52.152;5.436;2023-09-19T09:40:05;100921.66;;;18.36;89.75
71970;BME280;59838;52.152;5.436;2023-09-19T09:42:41;100933.78;;;18.37;90.38
71970;BME280;59838;52.152;5.436;2023-09-19T09:45:16;100925.03;;;18.60;92.06
71970;BME280;59838;52.152;5.436;2023-09-19T09:47:45;100916.16;;;18.78;90.02
71970;BME280;59838;52.152;5.436;2023-09-19T09:50:31;100921.66;;;18.89;90.99
71970;BME280;59838;52.152;5.436;2023-09-19T09:53:24;100921.69;;;19.06;90.89
71970;BME280;59838;52.152;5.436;2023-09-19T09:56:09;100933.13;;;19.11;88.72
71970;BME280;59838;52.152;5.436;2023-09-19T09:58:58;100914.63;;;18.94;86.83
71970;BME280;59838;52.152;5.436;2023-09-19T10:01:25;100922.16;;;19.03;89.59
71970;BME280;59838;52.152;5.436;2023-09-19T10:03:58;100921.91;;;19.04;87.70
71970;BME280;59838;52.152;5.436;2023-09-19T10:06:40;100909.16;;;19.13;88.22
71970;BME280;59838;52.152;5.436;2023-09-19T10:09:14;100917.22;;;19.06;87.02
71970;BME280;59838;52.152;5.436;2023-09-19T10:11:48;100919.31;;;19.21;86.89
71970;BME280;59838;52.152;5.436;2023-09-19T10:14:26;100927.84;;;19.11;86.19
71970;BME280;59838;52.152;5.436;2023-09-19T10:16:56;100908.16;;;18.85;85.69
71970;BME280;59838;52.152;5.436;2023-09-19T10:19:36;100924.25;;;18.60;86.26
71970;BME280;59838;52.152;5.436;2023-09-19T10:22:04;100924.16;;;18.43;86.76
71970;BME280;59838;52.152;5.436;2023-09-19T10:24:33;100917.91;;;18.32;86.42
71970;BME280;59838;52.152;5.436;2023-09-19T10:27:14;100910.81;;;18.33;87.44
71970;BME280;59838;52.152;5.436;2023-09-19T10:29:44;100901.91;;;18.34;87.49
71970;BME280;59838;52.152;5.436;2023-09-19T10:32:14;100906.09;;;18.47;86.77
71970;BME280;59838;52.152;5.436;2023-09-19T10:34:49;100894.22;;;18.73;84.96
71970;BME280;59838;52.152;5.436;2023-09-19T10:37:16;100895.94;;;18.79;86.73
71970;BME280;59838;52.152;5.436;2023-09-19T10:39:46;100887.94;;;19.03;83.11
71970;BME280;59838;52.152;5.436;2023-09-19T10:42:18;100887.47;;;19.23;84.26
71970;BME280;59838;52.152;5.436;2023-09-19T10:44:47;100878.53;;;19.58;84.67
71970;BME280;59838;52.152;5.436;2023-09-19T10:47:15;100871.56;;;19.68;85.46
71970;BME280;59838;52.152;5.436;2023-09-19T10:49:46;100889.06;;;19.58;82.19
71970;BME280;59838;52.152;5.436;2023-09-19T10:52:20;100886.69;;;19.39;83.72
71970;BME280;59838;52.152;5.436;2023-09-19T10:54:51;100878.22;;;19.20;85.68
71970;BME280;59838;52.152;5.436;2023-09-19T10:57:25;100882.94;;;19.18;84.39
71970;BME280;59838;52.152;5.436;2023-09-19T11:00:05;100874.53;;;19.38;84.48
71970;BME280;59838;52.152;5.436;2023-09-19T11:05:35;100865.78;;;19.88;82.42
71970;BME280;59838;52.152;5.436;2023-09-19T11:08:08;100862.69;;;19.75;82.20
71970;BME280;59838;52.152;5.436;2023-09-19T11:13:29;100846.84;;;19.91;83.06
71970;BME280;59838;52.152;5.436;2023-09-19T11:26:51;100854.69;;;19.69;84.03
71970;BME280;59838;52.152;5.436;2023-09-19T11:29:30;100851.50;;;19.67;82.16
71970;BME280;59838;52.152;5.436;2023-09-19T11:31:58;100853.13;;;19.68;83.17
71970;BME280;59838;52.152;5.436;2023-09-19T11:34:44;100848.34;;;19.48;82.94
71970;BME280;59838;52.152;5.436;2023-09-19T11:40:11;100840.00;;;19.34;84.23
71970;BME280;59838;52.152;5.436;2023-09-19T11:42:48;100844.59;;;19.27;82.40
71970;BME280;59838;52.152;5.436;2023-09-19T11:48:18;100839.44;;;19.15;83.73
71970;BME280;59838;52.152;5.436;2023-09-19T11:50:45;100830.81;;;19.20;82.17
71970;BME280;59838;52.152;5.436;2023-09-19T11:53:13;100823.13;;;19.35;83.15
71970;BME280;59838;52.152;5.436;2023-09-19T11:55:43;100828.03;;;19.66;80.88
71970;BME280;59838;52.152;5.436;2023-09-19T11:58:12;100831.09;;;19.58;79.52
71970;BME280;59838;52.152;5.436;2023-09-19T12:00:42;100830.78;;;19.54;80.32
71970;BME280;59838;52.152;5.436;2023-09-19T12:03:12;100832.06;;;19.51;80.63
71970;BME280;59838;52.152;5.436;2023-09-19T12:05:40;100828.00;;;19.44;78.94
71970;BME280;59838;52.152;5.436;2023-09-19T12:08:07;100854.72;;;19.35;81.94
71970;BME280;59838;52.152;5.436;2023-09-19T12:10:55;100856.44;;;19.25;82.68
71970;BME280;59838;52.152;5.436;2023-09-19T12:13:22;100857.38;;;19.18;82.98
71970;BME280;59838;52.152;5.436;2023-09-19T12:15:48;100850.50;;;19.17;83.93
71970;BME280;59838;52.152;5.436;2023-09-19T12:18:28;100836.94;;;19.26;82.86
71970;BME280;59838;52.152;5.436;2023-09-19T12:20:57;100849.00;;;19.22;81.63
71970;BME280;59838;52.152;5.436;2023-09-19T12:23:31;100838.63;;;19.15;81.65
71970;BME280;59838;52.152;5.436;2023-09-19T12:25:57;100844.84;;;19.09;80.60
71970;BME280;59838;52.152;5.436;2023-09-19T12:28:27;100835.97;;;18.98;80.00
71970;BME280;59838;52.152;5.436;2023-09-19T12:31:06;100842.13;;;18.87;79.97
71970;BME280;59838;52.152;5.436;2023-09-19T12:33:33;100842.78;;;18.82;82.64
71970;BME280;59838;52.152;5.436;2023-09-19T12:36:19;100845.09;;;18.90;81.59
71970;BME280;59838;52.152;5.436;2023-09-19T12:38:56;100841.47;;;18.96;82.55
71970;BME280;59838;52.152;5.436;2023-09-19T12:41:26;100828.97;;;19.04;83.76
71970;BME280;59838;52.152;5.436;2023-09-19T12:43:53;100839.28;;;19.05;82.48
71970;BME280;59838;52.152;5.436;2023-09-19T12:46:23;100842.31;;;18.97;82.66
71970;BME280;59838;52.152;5.436;2023-09-19T12:49:17;100833.88;;;18.83;84.20
71970;BME280;59838;52.152;5.436;2023-09-19T12:51:45;100843.66;;;18.71;84.83
71970;BME280;59838;52.152;5.436;2023-09-19T12:54:13;100855.59;;;18.61;84.38
71970;BME280;59838;52.152;5.436;2023-09-19T12:56:44;100840.69;;;18.67;84.78
71970;BME280;59838;52.152;5.436;2023-09-19T12:59:12;100843.19;;;18.74;84.44
71970;BME280;59838;52.152;5.436;2023-09-19T13:01:41;100841.22;;;18.81;83.95
71970;BME280;59838;52.152;5.436;2023-09-19T13:04:17;100845.00;;;19.02;85.26
71970;BME280;59838;52.152;5.436;2023-09-19T13:06:48;100840.38;;;19.09;84.04
71970;BME280;59838;52.152;5.436;2023-09-19T13:09:17;100848.59;;;19.13;85.12
71970;BME280;59838;52.152;5.436;2023-09-19T13:11:44;100846.31;;;19.16;85.87
71970;BME280;59838;52.152;5.436;2023-09-19T13:14:20;100835.38;;;19.25;84.93
71970;BME280;59838;52.152;5.436;2023-09-19T13:17:02;100836.16;;;19.25;84.10
71970;BME280;59838;52.152;5.436;2023-09-19T13:19:51;100840.84;;;19.06;84.76
71970;BME280;59838;52.152;5.436;2023-09-19T13:22:41;100863.75;;;18.89;86.35
71970;BME280;59838;52.152;5.436;2023-09-19T13:25:14;100858.03;;;18.80;87.02
71970;BME280;59838;52.152;5.436;2023-09-19T13:30:18;100856.84;;;18.59;92.75
71970;BME280;59838;52.152;5.436;2023-09-19T13:32:45;100854.44;;;18.40;92.37
71970;BME280;59838;52.152;5.436;2023-09-19T13:35:14;100842.97;;;18.47;93.92
71970;BME280;59838;52.152;5.436;2023-09-19T13:37:41;100844.94;;;18.68;91.43